Time;durP1;ratioP1;P1;durP2;ratioP2;P2;SDS_P1;SDS_P2;PMS_P1;PMS_P2;Temp;Humidity;BMP_temperature;BMP_pressure;BME280_temperature;BME280_humidity;BME280_pressure;Samples;Min_cycle;Max_cycle;Signal;HPM_P1;HPM_P2
2022/05/06 00:00:11;;;;;;;4.37;2.90;;;;;;;;;;4868618;29;20186;-76
2022/05/06 00:02:38;;;;;;;3.30;3.00;;;;;;;;;;4883590;29;20190;-76
2022/05/06 00:05:05;;;;;;;4.87;3.00;;;;;;;;;;4868310;29;20217;-76
2022/05/06 00:07:31;;;;;;;4.57;3.03;;;;;;;;;;4883566;29;20203;-76
2022/05/06 00:09:57;;;;;;;7.17;3.03;;;;;;;;;;4868202;29;20187;-76
2022/05/06 00:12:24;;;;;;;3.33;3.00;;;;;;;;;;4883390;29;20176;-76
2022/05/06 00:14:50;;;;;;;3.53;3.10;;;;;;;;;;4883634;29;20187;-76
2022/05/06 00:17:16;;;;;;;3.33;2.90;;;;;;;;;;4868222;29;20211;-76
2022/05/06 00:19:42;;;;;;;4.00;2.90;;;;;;;;;;4868039;29;20645;-76
2022/05/06 00:22:09;;;;;;;3.97;2.90;;;;;;;;;;4868090;29;20187;-76
2022/05/06 00:24:35;;;;;;;3.20;2.90;;;;;;;;;;4868338;29;20270;-76
2022/05/06 00:27:01;;;;;;;4.03;3.10;;;;;;;;;;4883376;29;20217;-76
2022/05/06 00:29:27;;;;;;;4.13;2.80;;;;;;;;;;4883414;29;20193;-76
2022/05/06 00:31:53;;;;;;;3.03;2.73;;;;;;;;;;4867829;29;20210;-76
2022/05/06 00:34:19;;;;;;;4.30;2.83;;;;;;;;;;4883278;29;20193;-76
2022/05/06 00:36:45;;;;;;;3.47;2.83;;;;;;;;;;4867833;29;20680;-75
2022/05/06 00:39:12;;;;;;;3.53;2.97;;;;;;;;;;4883269;29;20193;-76
2022/05/06 00:41:38;;;;;;;4.00;2.73;;;;;;;;;;4867619;29;20198;-76
2022/05/06 00:44:07;;;;;;;3.40;2.80;;;;;;;;;;4883001;29;20597;-76
2022/05/06 00:46:38;;;;;;;3.53;2.90;;;;;;;;;;4882865;29;20206;-76
2022/05/06 00:49:04;;;;;;;2.97;2.77;;;;;;;;;;4883197;29;20187;-76
2022/05/06 00:51:31;;;;;;;3.30;3.00;;;;;;;;;;4883106;29;20275;-76
2022/05/06 00:53:57;;;;;;;5.37;3.10;;;;;;;;;;4882069;29;20555;-76
2022/05/06 00:56:24;;;;;;;5.47;3.40;;;;;;;;;;4867022;29;20204;-76
2022/05/06 00:58:51;;;;;;;3.00;2.67;;;;;;;;;;4867563;29;20191;-76
2022/05/06 01:01:17;;;;;;;4.33;3.10;;;;;;;;;;4882788;29;20184;-76
2022/05/06 01:03:44;;;;;;;4.50;2.90;;;;;;;;;;4867244;29;20311;-76
2022/05/06 01:06:16;;;;;;;3.70;2.87;;;;;;;;;;4882675;29;20576;-76
2022/05/06 01:08:43;;;;;;;3.67;2.80;;;;;;;;;;4882835;29;20244;-76
2022/05/06 01:11:11;;;;;;;3.33;2.80;;;;;;;;;;4882943;29;20181;-76
2022/05/06 01:13:44;;;;;;;4.17;2.90;;;;;;;;;;4866958;29;20553;-76
2022/05/06 01:16:11;;;;;;;4.77;3.00;;;;;;;;;;4882690;29;20232;-76
2022/05/06 01:18:37;;;;;;;3.17;2.87;;;;;;;;;;4882453;29;20187;-76
2022/05/06 01:21:04;;;;;;;2.97;2.73;;;;;;;;;;4867255;29;20196;-76
2022/05/06 01:23:31;;;;;;;5.03;2.80;;;;;;;;;;4882432;29;20203;-76
2022/05/06 01:25:57;;;;;;;4.70;2.90;;;;;;;;;;4866759;29;20181;-76
2022/05/06 01:28:23;;;;;;;6.80;2.90;;;;;;;;;;4882331;29;20192;-76
2022/05/06 01:30:50;;;;;;;3.77;3.00;;;;;;;;;;4882407;29;20184;-76
2022/05/06 01:33:17;;;;;;;3.50;2.90;;;;;;;;;;4866685;29;20211;-76
2022/05/06 01:35:48;;;;;;;3.37;2.87;;;;;;;;;;4866937;29;20188;-76
2022/05/06 01:38:19;;;;;;;3.60;2.90;;;;;;;;;;4866732;29;20656;-76
2022/05/06 01:40:49;;;;;;;5.57;2.90;;;;;;;;;;4866682;29;20290;-76
2022/05/06 01:43:17;;;;;;;3.33;2.80;;;;;;;;;;4898870;29;20195;-76
2022/05/06 01:45:44;;;;;;;3.27;2.73;;;;;;;;;;4866757;29;20233;-76
2022/05/06 01:48:10;;;;;;;3.80;2.90;;;;;;;;;;4881990;29;20185;-76
2022/05/06 01:50:37;;;;;;;3.20;2.70;;;;;;;;;;4881796;29;20179;-76
2022/05/06 01:53:03;;;;;;;3.30;3.00;;;;;;;;;;4898503;29;20179;-76
2022/05/06 01:55:30;;;;;;;2.83;2.50;;;;;;;;;;4866397;29;20298;-75
2022/05/06 01:57:56;;;;;;;4.37;3.03;;;;;;;;;;4866473;29;20266;-76
2022/05/06 02:00:22;;;;;;;4.00;3.10;;;;;;;;;;4881943;29;20194;-76
2022/05/06 02:02:48;;;;;;;3.00;2.70;;;;;;;;;;4866150;29;20216;-76
2022/05/06 02:05:16;;;;;;;3.47;2.60;;;;;;;;;;4865998;29;20221;-76
2022/05/06 02:07:42;;;;;;;4.90;3.07;;;;;;;;;;4866432;29;20235;-76
2022/05/06 02:10:09;;;;;;;3.63;3.27;;;;;;;;;;4881533;29;20188;-76
2022/05/06 02:12:35;;;;;;;4.37;3.47;;;;;;;;;;4866115;29;20316;-75
2022/05/06 02:15:02;;;;;;;4.93;3.30;;;;;;;;;;4881633;29;20638;-76
2022/05/06 02:17:28;;;;;;;3.17;2.87;;;;;;;;;;4866258;29;20631;-75
2022/05/06 02:19:55;;;;;;;4.63;3.00;;;;;;;;;;4881353;29;20191;-76
2022/05/06 02:22:21;;;;;;;3.70;3.33;;;;;;;;;;4881299;29;20639;-75
2022/05/06 02:24:47;;;;;;;4.77;3.53;;;;;;;;;;4865921;29;20271;-76
2022/05/06 02:27:13;;;;;;;3.73;2.80;;;;;;;;;;4865819;29;20215;-76
2022/05/06 02:33:12;;;;;;;5.17;2.70;;;;;;;;;;4866025;29;20180;-76
2022/05/06 02:35:10;;;;;;;4.93;3.07;;;;;;;;;;4883963;29;20671;-76
2022/05/06 02:37:36;;;;;;;3.20;2.90;;;;;;;;;;4866004;29;20203;-76
2022/05/06 02:40:03;;;;;;;4.00;3.10;;;;;;;;;;4865659;29;20697;-76
2022/05/06 02:42:29;;;;;;;4.03;3.07;;;;;;;;;;4865625;29;20638;-76
2022/05/06 02:44:55;;;;;;;3.23;2.90;;;;;;;;;;4881167;29;20218;-76
2022/05/06 02:47:21;;;;;;;3.77;2.87;;;;;;;;;;4865466;29;20206;-76
2022/05/06 02:49:47;;;;;;;3.50;2.87;;;;;;;;;;4865390;29;20559;-75
2022/05/06 02:52:13;;;;;;;4.47;3.30;;;;;;;;;;4880812;29;20635;-76
2022/05/06 02:54:40;;;;;;;3.50;2.97;;;;;;;;;;4880768;29;20634;-75
2022/05/06 02:57:06;;;;;;;3.73;2.63;;;;;;;;;;4865586;29;20239;-76
2022/05/06 02:59:32;;;;;;;5.13;3.20;;;;;;;;;;4880795;29;20190;-76
2022/05/06 03:01:58;;;;;;;3.20;2.90;;;;;;;;;;4865184;29;20198;-75
2022/05/06 03:04:24;;;;;;;5.60;2.97;;;;;;;;;;4880778;29;20216;-76
2022/05/06 03:06:51;;;;;;;4.87;3.07;;;;;;;;;;4880640;29;20217;-75
2022/05/06 03:09:17;;;;;;;3.90;2.90;;;;;;;;;;4865236;29;20179;-76
2022/05/06 03:11:43;;;;;;;3.50;2.97;;;;;;;;;;4865357;29;20252;-75
2022/05/06 03:14:09;;;;;;;3.57;2.70;;;;;;;;;;4865200;29;20193;-76
2022/05/06 03:16:36;;;;;;;4.40;3.13;;;;;;;;;;4880415;29;20209;-76
2022/05/06 03:19:02;;;;;;;4.27;3.20;;;;;;;;;;4864667;29;20197;-76
2022/05/06 03:21:28;;;;;;;3.70;3.10;;;;;;;;;;4880570;29;20211;-76
2022/05/06 03:23:54;;;;;;;3.90;3.00;;;;;;;;;;4880417;29;20690;-76
2022/05/06 03:26:20;;;;;;;4.90;3.00;;;;;;;;;;4880515;29;20220;-76
2022/05/06 03:28:46;;;;;;;3.20;2.90;;;;;;;;;;4897116;29;20179;-76
2022/05/06 03:31:13;;;;;;;4.60;3.07;;;;;;;;;;4880226;29;20187;-76
2022/05/06 03:33:41;;;;;;;3.67;2.97;;;;;;;;;;4865021;29;20186;-75
2022/05/06 03:36:09;;;;;;;3.73;2.90;;;;;;;;;;4897030;29;20199;-76
2022/05/06 03:38:35;;;;;;;3.63;3.00;;;;;;;;;;4880466;29;20793;-76
2022/05/06 03:41:01;;;;;;;4.97;3.10;;;;;;;;;;4880308;29;20660;-75
2022/05/06 03:43:28;;;;;;;3.67;3.00;;;;;;;;;;4880156;29;20207;-75
2022/05/06 03:45:54;;;;;;;3.27;2.97;;;;;;;;;;4880044;29;20176;-75
2022/05/06 03:48:24;;;;;;;4.30;3.23;;;;;;;;;;4880363;29;20702;-75
2022/05/06 03:53:35;;;;;;;3.10;2.80;;;;;;;;;;4883086;29;20234;-76
2022/05/06 03:56:01;;;;;;;3.57;3.27;;;;;;;;;;4880081;29;20194;-75
2022/05/06 03:58:28;;;;;;;5.47;3.30;;;;;;;;;;4880040;29;20193;-76
2022/05/06 04:00:54;;;;;;;7.17;3.50;;;;;;;;;;4864625;29;20674;-75
2022/05/06 04:03:20;;;;;;;3.30;3.00;;;;;;;;;;4864703;29;20309;-76
2022/05/06 04:05:46;;;;;;;4.50;3.40;;;;;;;;;;4880205;29;20213;-75
2022/05/06 04:08:12;;;;;;;4.00;3.30;;;;;;;;;;4880300;29;20210;-76
2022/05/06 04:10:38;;;;;;;4.40;3.20;;;;;;;;;;4896793;29;20592;-76
2022/05/06 04:13:04;;;;;;;3.70;3.00;;;;;;;;;;4864369;29;20187;-76
2022/05/06 04:15:32;;;;;;;3.60;3.30;;;;;;;;;;4864976;29;20183;-75
2022/05/06 04:17:59;;;;;;;4.33;3.10;;;;;;;;;;4880071;29;20203;-75
2022/05/06 04:25:55;;;;;;;3.80;3.40;;;;;;;;;;4882680;29;20182;-76
2022/05/06 04:28:21;;;;;;;3.83;3.20;;;;;;;;;;4880475;29;20193;-76
2022/05/06 04:30:47;;;;;;;3.40;3.10;;;;;;;;;;4900232;29;20181;-75
2022/05/06 04:33:13;;;;;;;4.00;3.60;;;;;;;;;;4867813;29;20274;-76
2022/05/06 04:35:40;;;;;;;4.77;3.60;;;;;;;;;;4867961;29;20179;-76
2022/05/06 04:38:06;;;;;;;4.23;3.20;;;;;;;;;;4867802;29;20714;-75
2022/05/06 04:40:33;;;;;;;3.20;2.90;;;;;;;;;;4900049;29;20172;-75
2022/05/06 04:43:00;;;;;;;4.13;3.10;;;;;;;;;;4882922;29;20594;-76
2022/05/06 04:45:28;;;;;;;4.37;3.70;;;;;;;;;;4883187;29;20183;-76
2022/05/06 04:47:54;;;;;;;4.27;3.07;;;;;;;;;;4867854;29;20206;-76
2022/05/06 04:50:21;;;;;;;5.67;3.03;;;;;;;;;;4867646;29;20189;-76
2022/05/06 04:52:48;;;;;;;4.60;3.40;;;;;;;;;;4882869;29;20677;-76
2022/05/06 04:55:14;;;;;;;3.53;3.20;;;;;;;;;;4883194;29;20267;-76
2022/05/06 04:57:40;;;;;;;4.23;3.27;;;;;;;;;;4882775;29;20238;-76
2022/05/06 05:00:07;;;;;;;3.67;3.37;;;;;;;;;;4882934;29;20251;-80
2022/05/06 05:02:33;;;;;;;3.67;3.20;;;;;;;;;;4882542;29;20261;-77
2022/05/06 05:04:59;;;;;;;4.03;3.53;;;;;;;;;;4882866;29;20242;-77
2022/05/06 05:07:26;;;;;;;3.97;3.50;;;;;;;;;;4867549;29;20207;-77
2022/05/06 05:09:52;;;;;;;4.40;3.70;;;;;;;;;;4882853;29;20175;-76
2022/05/06 05:12:18;;;;;;;4.40;3.87;;;;;;;;;;4898771;29;20219;-76
2022/05/06 05:14:44;;;;;;;6.40;4.00;;;;;;;;;;4882709;29;20184;-76
2022/05/06 05:17:14;;;;;;;5.17;4.03;;;;;;;;;;4882578;29;20238;-77
2022/05/06 05:19:40;;;;;;;4.30;3.70;;;;;;;;;;4867424;29;20187;-76
2022/05/06 05:22:06;;;;;;;4.50;4.10;;;;;;;;;;4882588;29;20179;-75
2022/05/06 05:24:33;;;;;;;4.63;4.00;;;;;;;;;;4882262;29;20686;-76
2022/05/06 05:26:59;;;;;;;5.83;3.67;;;;;;;;;;4882338;29;20215;-75
2022/05/06 05:29:25;;;;;;;4.60;4.10;;;;;;;;;;4866896;29;20615;-75
2022/05/06 05:31:52;;;;;;;5.23;4.07;;;;;;;;;;4882115;29;20175;-76
2022/05/06 05:34:18;;;;;;;4.37;3.70;;;;;;;;;;4882115;29;20183;-76
2022/05/06 05:36:44;;;;;;;5.23;3.90;;;;;;;;;;4866739;29;20588;-75
2022/05/06 05:39:13;;;;;;;3.87;3.50;;;;;;;;;;4882651;29;20189;-75
2022/05/06 05:41:39;;;;;;;5.50;3.40;;;;;;;;;;4866403;29;20190;-75
2022/05/06 05:49:35;;;;;;;3.63;3.33;;;;;;;;;;4899069;29;20200;-77
2022/05/06 05:52:01;;;;;;;4.70;3.73;;;;;;;;;;4866293;29;20220;-76
2022/05/06 05:54:28;;;;;;;3.80;3.50;;;;;;;;;;4866597;29;20192;-75
2022/05/06 05:56:54;;;;;;;4.23;3.80;;;;;;;;;;4881937;29;20200;-75
2022/05/06 05:59:20;;;;;;;4.93;4.37;;;;;;;;;;4881670;29;20223;-75
2022/05/06 06:01:46;;;;;;;7.33;4.40;;;;;;;;;;4881798;29;20188;-75
2022/05/06 06:04:12;;;;;;;6.10;4.27;;;;;;;;;;4866093;29;20693;-74
2022/05/06 06:06:38;;;;;;;5.77;4.90;;;;;;;;;;4881682;29;20203;-76
2022/05/06 06:09:04;;;;;;;6.10;4.70;;;;;;;;;;4898501;29;20181;-76
2022/05/06 06:11:31;;;;;;;4.80;4.30;;;;;;;;;;4881672;29;20178;-76
2022/05/06 06:13:57;;;;;;;5.00;4.50;;;;;;;;;;4865880;29;20188;-76
2022/05/06 06:16:24;;;;;;;4.87;4.37;;;;;;;;;;4881610;29;20209;-76
2022/05/06 06:18:50;;;;;;;5.07;4.53;;;;;;;;;;4866170;29;20192;-76
2022/05/06 06:21:16;;;;;;;6.47;4.73;;;;;;;;;;4898129;29;20191;-76
2022/05/06 06:23:42;;;;;;;5.20;4.57;;;;;;;;;;4865955;29;20220;-76
2022/05/06 06:26:08;;;;;;;5.97;5.00;;;;;;;;;;4881328;29;20208;-76
2022/05/06 06:28:34;;;;;;;6.53;5.13;;;;;;;;;;4898049;29;20166;-76
2022/05/06 06:31:00;;;;;;;7.00;5.37;;;;;;;;;;4881356;29;20184;-76
2022/05/06 06:33:26;;;;;;;6.27;5.50;;;;;;;;;;4881162;29;20205;-76
2022/05/06 06:35:52;;;;;;;8.63;5.50;;;;;;;;;;4881149;29;20640;-76
2022/05/06 06:38:18;;;;;;;6.83;5.73;;;;;;;;;;4897885;29;20701;-76
2022/05/06 06:40:44;;;;;;;7.40;5.70;;;;;;;;;;4865546;29;20196;-76
2022/05/06 06:43:11;;;;;;;8.13;6.03;;;;;;;;;;4865414;29;20283;-76
2022/05/06 06:45:38;;;;;;;6.40;5.67;;;;;;;;;;4865922;29;20199;-76
2022/05/06 06:48:04;;;;;;;6.23;5.57;;;;;;;;;;4880872;29;20198;-76
2022/05/06 06:50:30;;;;;;;6.67;5.63;;;;;;;;;;4880843;29;20193;-76
2022/05/06 06:52:56;;;;;;;6.23;5.37;;;;;;;;;;4865300;29;20185;-76
2022/05/06 06:55:22;;;;;;;7.17;5.17;;;;;;;;;;4880791;29;20267;-76
2022/05/06 06:57:50;;;;;;;7.50;4.80;;;;;;;;;;4880862;29;20216;-76
2022/05/06 07:00:16;;;;;;;5.80;5.00;;;;;;;;;;4865818;29;20562;-76
2022/05/06 07:02:45;;;;;;;5.93;4.87;;;;;;;;;;4865757;29;20190;-76
2022/05/06 07:05:11;;;;;;;8.73;5.20;;;;;;;;;;4865905;29;20676;-77
2022/05/06 07:13:06;;;;;;;5.70;4.60;;;;;;;;;;4883711;29;20181;-77
2022/05/06 07:15:33;;;;;;;5.50;4.53;;;;;;;;;;4880029;29;20620;-77
2022/05/06 07:17:59;;;;;;;6.10;4.10;;;;;;;;;;4864183;29;20206;-77
2022/05/06 07:20:25;;;;;;;5.27;4.27;;;;;;;;;;4880476;29;20211;-77
2022/05/06 07:22:51;;;;;;;4.97;4.13;;;;;;;;;;4865040;29;20254;-77
2022/05/06 07:25:17;;;;;;;5.50;4.23;;;;;;;;;;4865046;29;20187;-77
2022/05/06 07:27:43;;;;;;;5.20;4.30;;;;;;;;;;4880257;29;20218;-77
2022/05/06 07:30:10;;;;;;;4.83;3.90;;;;;;;;;;4880406;29;20215;-77
2022/05/06 07:32:37;;;;;;;4.47;3.83;;;;;;;;;;4864881;29;20681;-77
2022/05/06 07:35:04;;;;;;;5.77;4.40;;;;;;;;;;4865105;29;20191;-77
2022/05/06 07:37:33;;;;;;;4.93;3.90;;;;;;;;;;4864847;29;20210;-77
2022/05/06 07:40:00;;;;;;;6.33;4.07;;;;;;;;;;4880237;29;20669;-77
2022/05/06 07:42:28;;;;;;;4.57;4.17;;;;;;;;;;4864666;29;20187;-77
2022/05/06 07:44:55;;;;;;;4.57;3.50;;;;;;;;;;4880276;29;20218;-77
2022/05/06 07:47:21;;;;;;;5.20;4.00;;;;;;;;;;4864817;29;20242;-77
2022/05/06 07:49:47;;;;;;;4.47;3.70;;;;;;;;;;4864754;29;20183;-77
2022/05/06 07:52:13;;;;;;;5.47;3.90;;;;;;;;;;4880028;29;20185;-77
2022/05/06 07:54:39;;;;;;;5.03;3.57;;;;;;;;;;4864790;29;20219;-77
2022/05/06 07:57:05;;;;;;;4.67;4.13;;;;;;;;;;4880096;29;20210;-77
2022/05/06 07:59:31;;;;;;;4.93;3.80;;;;;;;;;;4864699;29;20221;-77
2022/05/06 08:04:47;;;;;;;3.67;3.30;;;;;;;;;;4884954;29;20270;-77
2022/05/06 08:07:13;;;;;;;5.80;3.20;;;;;;;;;;4883807;29;20251;-77
2022/05/06 08:09:39;;;;;;;5.83;3.33;;;;;;;;;;4868153;29;20642;-77
2022/05/06 08:12:06;;;;;;;3.70;2.70;;;;;;;;;;4883350;29;20274;-78
2022/05/06 08:14:32;;;;;;;3.40;2.60;;;;;;;;;;4868318;29;20239;-78
2022/05/06 08:16:59;;;;;;;3.53;2.10;;;;;;;;;;4900331;29;20254;-77
2022/05/06 08:19:25;;;;;;;3.20;2.20;;;;;;;;;;4883345;29;20185;-77
2022/05/06 08:21:52;;;;;;;3.63;2.00;;;;;;;;;;4883389;29;20264;-78
2022/05/06 08:24:18;;;;;;;4.70;1.90;;;;;;;;;;4883477;29;20211;-78
2022/05/06 08:26:45;;;;;;;3.13;1.93;;;;;;;;;;4867684;29;20585;-78
2022/05/06 08:29:11;;;;;;;4.00;1.83;;;;;;;;;;4883478;29;20182;-78
2022/05/06 08:31:40;;;;;;;2.10;1.67;;;;;;;;;;4883556;29;20176;-78
2022/05/06 08:34:09;;;;;;;3.10;2.00;;;;;;;;;;4868337;29;20632;-77
2022/05/06 08:36:36;;;;;;;3.87;2.00;;;;;;;;;;4883799;29;20202;-78
2022/05/06 08:39:03;;;;;;;2.00;1.80;;;;;;;;;;4883359;29;20179;-78
2022/05/06 08:41:30;;;;;;;2.00;1.70;;;;;;;;;;4899896;29;20689;-78
2022/05/06 08:43:56;;;;;;;3.30;1.77;;;;;;;;;;4882950;29;20243;-78
2022/05/06 08:51:55;;;;;;;2.87;1.73;;;;;;;;;;4899763;29;20199;-78
2022/05/06 08:54:22;;;;;;;3.20;1.67;;;;;;;;;;4883178;29;20220;-78
2022/05/06 08:56:49;;;;;;;3.53;1.97;;;;;;;;;;4867411;29;20203;-78
2022/05/06 08:59:15;;;;;;;2.70;1.70;;;;;;;;;;4867738;29;20243;-78
2022/05/06 09:01:41;;;;;;;2.10;1.70;;;;;;;;;;4882799;29;20195;-78
2022/05/06 09:04:07;;;;;;;1.93;1.50;;;;;;;;;;4882637;29;20207;-78
2022/05/06 09:06:34;;;;;;;4.77;2.00;;;;;;;;;;4882626;29;20254;-78
2022/05/06 09:09:00;;;;;;;3.90;1.77;;;;;;;;;;4867289;29;20715;-78
2022/05/06 09:17:21;;;;;;;2.50;1.60;;;;;;;;;;4830999;29;20317;-78
2022/05/06 09:19:47;;;;;;;1.70;1.60;;;;;;;;;;4866994;29;20191;-77
2022/05/06 09:22:14;;;;;;;2.97;1.60;;;;;;;;;;4882308;29;20643;-77
2022/05/06 09:24:41;;;;;;;3.10;1.70;;;;;;;;;;4867191;29;20211;-78
2022/05/06 09:27:11;;;;;;;3.80;1.80;;;;;;;;;;4882358;29;20210;-78
2022/05/06 09:29:38;;;;;;;2.50;1.53;;;;;;;;;;4866860;29;20666;-78
2022/05/06 09:32:23;;;;;;;1.90;1.70;;;;;;;;;;4882355;29;20179;-78
2022/05/06 09:34:54;;;;;;;4.00;1.77;;;;;;;;;;4899035;29;20179;-77
2022/05/06 09:37:35;;;;;;;2.10;1.90;;;;;;;;;;4882157;29;20209;-77
2022/05/06 09:40:06;;;;;;;2.70;1.77;;;;;;;;;;4882128;29;20179;-78
2022/05/06 09:42:33;;;;;;;2.37;1.73;;;;;;;;;;4898780;29;20183;-78
2022/05/06 09:44:59;;;;;;;2.60;1.63;;;;;;;;;;4882053;29;20257;-77
2022/05/06 09:47:26;;;;;;;2.73;1.70;;;;;;;;;;4882055;29;20571;-78
2022/05/06 09:49:52;;;;;;;1.97;1.73;;;;;;;;;;4882311;29;20653;-78
2022/05/06 09:52:18;;;;;;;2.13;1.43;;;;;;;;;;4866551;29;20183;-78
2022/05/06 09:54:46;;;;;;;2.10;1.60;;;;;;;;;;4866437;29;20198;-78
2022/05/06 09:57:13;;;;;;;2.00;1.33;;;;;;;;;;4882017;29;20704;-78
2022/05/06 09:59:39;;;;;;;1.90;1.43;;;;;;;;;;4881906;29;20190;-78
2022/05/06 10:02:06;;;;;;;1.83;1.50;;;;;;;;;;4898440;29;20282;-77
2022/05/06 10:04:32;;;;;;;2.77;1.40;;;;;;;;;;4881646;29;20203;-78
2022/05/06 10:07:01;;;;;;;2.27;1.30;;;;;;;;;;4898868;29;20202;-78
2022/05/06 10:09:28;;;;;;;2.90;1.30;;;;;;;;;;4866220;29;20571;-76
2022/05/06 10:11:55;;;;;;;1.83;1.20;;;;;;;;;;4881504;29;20319;-77
2022/05/06 10:14:21;;;;;;;1.80;1.40;;;;;;;;;;4881982;29;20183;-77
2022/05/06 10:16:48;;;;;;;2.63;1.20;;;;;;;;;;4882270;29;20262;-78
2022/05/06 10:19:49;;;;;;;1.57;1.43;;;;;;;;;;4882058;29;20206;-77
2022/05/06 10:22:15;;;;;;;1.43;1.33;;;;;;;;;;4881712;29;20165;-77
2022/05/06 10:24:49;;;;;;;2.00;1.50;;;;;;;;;;4881987;29;20203;-78
2022/05/06 10:27:23;;;;;;;3.73;1.40;;;;;;;;;;4929096;23;20226;-77
2022/05/06 10:32:53;;;;;;;2.20;1.40;;;;;;;;;;4917260;29;20187;-77
2022/05/06 10:35:41;;;;;;;2.03;1.40;;;;;;;;;;4900448;29;20543;-77
2022/05/06 10:38:17;;;;;;;1.80;1.25;;;;;;;;;;4917329;29;20201;-76
2022/05/06 10:40:56;;;;;;;2.15;1.42;;;;;;;;;;4884864;29;20206;-75
2022/05/06 10:43:41;;;;;;;1.67;1.57;;;;;;;;;;4900030;29;20624;-77
2022/05/06 10:46:07;;;;;;;1.83;1.50;;;;;;;;;;4900744;29;20268;-75
2022/05/06 10:48:33;;;;;;;2.10;1.45;;;;;;;;;;4900432;29;20194;-78
2022/05/06 10:51:18;;;;;;;1.85;1.42;;;;;;;;;;4900375;29;20229;-78
2022/05/06 10:53:44;;;;;;;1.42;1.33;;;;;;;;;;4899870;29;20257;-77
2022/05/06 10:56:10;;;;;;;1.48;1.30;;;;;;;;;;4885004;29;20234;-79
2022/05/06 10:58:36;;;;;;;2.28;1.40;;;;;;;;;;4884595;29;20290;-78
2022/05/06 11:01:02;;;;;;;1.95;1.60;;;;;;;;;;4884496;29;20197;-77
2022/05/06 11:03:28;;;;;;;2.15;1.40;;;;;;;;;;4916684;29;20205;-77
2022/05/06 11:05:54;;;;;;;1.45;1.30;;;;;;;;;;4900170;29;20186;-78
2022/05/06 11:08:21;;;;;;;1.98;1.40;;;;;;;;;;4899781;29;20202;-77
2022/05/06 11:10:49;;;;;;;1.95;1.23;;;;;;;;;;4899930;29;20185;-78
2022/05/06 11:13:17;;;;;;;2.22;1.42;;;;;;;;;;4899541;29;20178;-77
2022/05/06 11:15:45;;;;;;;2.13;1.40;;;;;;;;;;4899787;29;20179;-77
2022/05/06 11:18:11;;;;;;;1.73;1.30;;;;;;;;;;4900024;29;20198;-78
2022/05/06 11:20:38;;;;;;;1.67;1.30;;;;;;;;;;4899959;29;20650;-77
2022/05/06 11:23:04;;;;;;;3.75;1.30;;;;;;;;;;4899578;29;20182;-77
2022/05/06 11:25:34;;;;;;;1.48;1.30;;;;;;;;;;4899736;29;20185;-77
2022/05/06 11:28:01;;;;;;;1.83;1.20;;;;;;;;;;4916383;29;20697;-77
2022/05/06 11:30:29;;;;;;;1.58;1.25;;;;;;;;;;4884235;29;20183;-77
2022/05/06 11:32:56;;;;;;;1.40;1.30;;;;;;;;;;4899603;29;20179;-78
2022/05/06 11:35:26;;;;;;;1.65;1.23;;;;;;;;;;4884145;29;20179;-78
2022/05/06 11:37:53;;;;;;;2.20;1.20;;;;;;;;;;4899247;29;20202;-78
2022/05/06 11:40:35;;;;;;;1.85;1.20;;;;;;;;;;4883904;29;20187;-78
2022/05/06 11:43:03;;;;;;;1.75;1.30;;;;;;;;;;4899482;29;20649;-78
2022/05/06 11:48:15;;;;;;;1.95;1.50;;;;;;;;;;4902433;29;20229;-78
2022/05/06 11:50:43;;;;;;;3.38;1.48;;;;;;;;;;4899668;29;20167;-78
2022/05/06 11:53:10;;;;;;;1.65;1.38;;;;;;;;;;4899496;29;20628;-78
2022/05/06 11:55:37;;;;;;;1.95;1.20;;;;;;;;;;4916233;29;20635;-78
2022/05/06 11:58:07;;;;;;;2.67;1.40;;;;;;;;;;4884221;29;20298;-78
2022/05/06 12:00:33;;;;;;;3.22;1.10;;;;;;;;;;4899297;29;20174;-78
2022/05/06 12:03:09;;;;;;;1.60;1.10;;;;;;;;;;4899471;29;20185;-78
2022/05/06 12:05:36;;;;;;;1.98;1.10;;;;;;;;;;4884181;29;20220;-78
2022/05/06 12:08:03;;;;;;;2.17;1.20;;;;;;;;;;4899418;29;20198;-78
2022/05/06 12:10:30;;;;;;;1.50;1.10;;;;;;;;;;4899195;29;20177;-78
2022/05/06 12:12:56;;;;;;;1.73;1.20;;;;;;;;;;4899405;29;20170;-78
2022/05/06 12:15:39;;;;;;;1.33;1.23;;;;;;;;;;4916128;29;20170;-77
2022/05/06 12:18:05;;;;;;;1.30;1.20;;;;;;;;;;4884401;29;20586;-77
2022/05/06 12:20:38;;;;;;;1.58;1.10;;;;;;;;;;4899144;29;20649;-78
2022/05/06 12:23:05;;;;;;;2.03;0.95;;;;;;;;;;4915809;29;20175;-78
2022/05/06 12:25:32;;;;;;;2.40;1.20;;;;;;;;;;4884027;29;20191;-78
2022/05/06 12:28:04;;;;;;;1.48;1.00;;;;;;;;;;4897554;29;20293;-78
2022/05/06 12:30:31;;;;;;;1.30;1.08;;;;;;;;;;4915680;29;20171;-78
2022/05/06 12:33:06;;;;;;;1.38;1.20;;;;;;;;;;4898068;29;20175;-79
2022/05/06 12:35:52;;;;;;;1.60;1.10;;;;;;;;;;4898600;29;20202;-78
2022/05/06 12:38:18;;;;;;;1.88;1.20;;;;;;;;;;4898677;29;20206;-78
2022/05/06 12:40:45;;;;;;;1.95;1.10;;;;;;;;;;4898944;29;20175;-79
2022/05/06 12:43:11;;;;;;;1.30;1.10;;;;;;;;;;4882890;29;20183;-79
2022/05/06 12:45:38;;;;;;;1.92;1.10;;;;;;;;;;4898447;29;20177;-79
2022/05/06 12:50:48;;;;;;;1.95;1.20;;;;;;;;;;4903539;29;20193;-79
2022/05/06 12:53:14;;;;;;;1.98;1.13;;;;;;;;;;4886394;29;20182;-79
2022/05/06 12:55:44;;;;;;;2.33;1.27;;;;;;;;;;4902148;29;20180;-79
2022/05/06 12:58:10;;;;;;;1.73;0.90;;;;;;;;;;4902207;29;20194;-79
2022/05/06 13:00:37;;;;;;;1.20;1.02;;;;;;;;;;4902071;29;20178;-79
2022/05/06 13:03:04;;;;;;;1.08;0.90;;;;;;;;;;4886171;29;20237;-79
2022/05/06 13:05:30;;;;;;;1.48;1.10;;;;;;;;;;4886531;29;20182;-79
2022/05/06 13:07:56;;;;;;;1.35;1.02;;;;;;;;;;4902179;29;20652;-79
2022/05/06 13:10:22;;;;;;;1.92;1.05;;;;;;;;;;4886243;29;20230;-79
2022/05/06 13:12:48;;;;;;;1.30;1.10;;;;;;;;;;4901395;29;20175;-79
2022/05/06 13:15:14;;;;;;;2.05;1.10;;;;;;;;;;4885997;29;20250;-78
2022/05/06 13:17:40;;;;;;;1.13;1.02;;;;;;;;;;4885802;29;20202;-79
2022/05/06 13:20:06;;;;;;;1.20;1.10;;;;;;;;;;4886037;29;20182;-79
2022/05/06 13:22:32;;;;;;;1.42;1.10;;;;;;;;;;4885974;29;20203;-79
2022/05/06 13:24:59;;;;;;;1.80;1.10;;;;;;;;;;4885727;29;20218;-78
2022/05/06 13:27:25;;;;;;;3.28;1.25;;;;;;;;;;4901296;29;20305;-79
2022/05/06 13:29:51;;;;;;;1.85;1.00;;;;;;;;;;4901314;29;20282;-79
2022/05/06 13:32:17;;;;;;;1.42;1.00;;;;;;;;;;4885598;29;20197;-79
2022/05/06 13:34:43;;;;;;;1.40;1.00;;;;;;;;;;4885938;29;20209;-79
2022/05/06 13:37:09;;;;;;;1.33;1.10;;;;;;;;;;4886043;29;20250;-78
2022/05/06 13:39:35;;;;;;;2.05;1.17;;;;;;;;;;4901074;29;20662;-79
2022/05/06 13:42:01;;;;;;;1.60;1.17;;;;;;;;;;4917958;29;20704;-79
2022/05/06 13:44:27;;;;;;;1.13;1.02;;;;;;;;;;4901252;29;20325;-79
2022/05/06 13:46:53;;;;;;;2.63;1.08;;;;;;;;;;4885449;29;20249;-79
2022/05/06 13:49:19;;;;;;;4.55;1.27;;;;;;;;;;4885745;29;20189;-79
2022/05/06 13:51:45;;;;;;;2.33;1.10;;;;;;;;;;4901032;29;20182;-79
2022/05/06 13:54:11;;;;;;;0.90;0.90;;;;;;;;;;4885472;29;20182;-79
2022/05/06 13:59:22;;;;;;;1.40;1.08;;;;;;;;;;4918906;29;20214;-80
2022/05/06 14:01:49;;;;;;;1.42;1.10;;;;;;;;;;4900649;29;20186;-79
2022/05/06 14:04:15;;;;;;;1.50;1.10;;;;;;;;;;4885088;29;20250;-77
2022/05/06 14:06:41;;;;;;;1.75;0.90;;;;;;;;;;4900403;29;20580;-78
2022/05/06 14:09:07;;;;;;;1.13;1.02;;;;;;;;;;4900467;29;20230;-77
2022/05/06 14:11:34;;;;;;;3.08;1.48;;;;;;;;;;4900439;29;20178;-77
2022/05/06 14:14:00;;;;;;;2.85;1.42;;;;;;;;;;4917150;29;20174;-78
2022/05/06 14:16:27;;;;;;;3.78;1.10;;;;;;;;;;4885004;29;20182;-79
2022/05/06 14:18:56;;;;;;;4.20;1.10;;;;;;;;;;4885072;29;20226;-78
2022/05/06 14:21:23;;;;;;;1.88;0.95;;;;;;;;;;4900465;29;20183;-78
2022/05/06 14:23:49;;;;;;;1.27;1.10;;;;;;;;;;4884722;29;20740;-78
2022/05/06 14:26:15;;;;;;;1.15;1.00;;;;;;;;;;4884462;29;20277;-78
2022/05/06 14:28:41;;;;;;;0.90;0.90;;;;;;;;;;4884610;29;20182;-77
2022/05/06 14:31:07;;;;;;;1.70;1.08;;;;;;;;;;4899966;29;20233;-78
2022/05/06 14:33:33;;;;;;;2.65;1.02;;;;;;;;;;4884015;29;20182;-78
2022/05/06 14:35:59;;;;;;;1.52;1.30;;;;;;;;;;4884378;29;20216;-78
2022/05/06 14:38:25;;;;;;;1.13;1.00;;;;;;;;;;4884241;29;20727;-78
2022/05/06 14:40:51;;;;;;;1.80;1.00;;;;;;;;;;4899883;29;20205;-78
2022/05/06 14:43:17;;;;;;;2.33;1.10;;;;;;;;;;4916711;29;20294;-78
2022/05/06 14:45:43;;;;;;;0.95;0.90;;;;;;;;;;4900039;29;20265;-78
2022/05/06 14:48:09;;;;;;;2.60;1.10;;;;;;;;;;4884122;29;20206;-78
2022/05/06 14:50:36;;;;;;;1.60;1.00;;;;;;;;;;4884175;29;20182;-78
2022/05/06 14:53:02;;;;;;;2.53;1.00;;;;;;;;;;4884019;29;20179;-78
2022/05/06 14:55:28;;;;;;;1.77;1.10;;;;;;;;;;4884051;29;20189;-78
2022/05/06 14:57:56;;;;;;;1.02;0.93;;;;;;;;;;4884062;29;20217;-77
2022/05/06 15:00:22;;;;;;;1.50;1.13;;;;;;;;;;4899760;29;20557;-77
2022/05/06 15:02:49;;;;;;;1.25;1.00;;;;;;;;;;4883900;29;20269;-78
2022/05/06 15:05:16;;;;;;;1.27;1.13;;;;;;;;;;4899419;29;20765;-78
2022/05/06 15:07:42;;;;;;;1.40;1.05;;;;;;;;;;4884060;29;20202;-78
2022/05/06 15:10:08;;;;;;;3.33;1.13;;;;;;;;;;4883932;29;20201;-78
2022/05/06 15:12:34;;;;;;;2.78;1.10;;;;;;;;;;4899133;29;20182;-78
2022/05/06 15:15:00;;;;;;;1.45;1.15;;;;;;;;;;4883600;29;20218;-78
2022/05/06 15:17:27;;;;;;;1.02;1.00;;;;;;;;;;4883474;29;20206;-77
2022/05/06 15:19:54;;;;;;;1.52;1.30;;;;;;;;;;4899290;29;20213;-77
2022/05/06 15:22:20;;;;;;;1.70;1.10;;;;;;;;;;4898967;29;20226;-78
2022/05/06 15:24:47;;;;;;;1.30;1.20;;;;;;;;;;4899255;29;20202;-78
2022/05/06 15:27:13;;;;;;;1.75;0.93;;;;;;;;;;4898984;29;20713;-78
2022/05/06 15:29:39;;;;;;;2.60;1.27;;;;;;;;;;4883897;29;20182;-77